createdAt,value
2022-11-28T00:01:33.352Z,7.23
2022-11-28T00:04:01.710Z,7.43
2022-11-28T00:06:31.778Z,7.70
2022-11-28T00:09:00.567Z,7.43
2022-11-28T00:11:28.854Z,7.63
2022-11-28T00:13:57.372Z,8.43
2022-11-28T00:16:26.303Z,8.53
2022-11-28T00:18:56.151Z,8.00
2022-11-28T00:21:24.905Z,8.27
2022-11-28T00:23:54.837Z,8.93
2022-11-28T00:26:24.740Z,8.87
2022-11-28T00:28:52.969Z,8.27
2022-11-28T00:31:23.591Z,8.60
2022-11-28T00:33:51.932Z,9.40
2022-11-28T00:36:20.957Z,9.20
2022-11-28T00:38:49.337Z,9.20
2022-11-28T00:41:20.770Z,9.20
2022-11-28T00:43:50.836Z,10.03
2022-11-28T00:46:20.760Z,8.87
2022-11-28T00:48:49.390Z,9.03
2022-11-28T00:51:19.871Z,9.40
2022-11-28T00:53:52.093Z,9.10
2022-11-28T00:56:24.233Z,10.10
2022-11-28T00:58:52.951Z,10.60
2022-11-28T01:01:23.421Z,9.87
2022-11-28T01:03:53.232Z,9.90
2022-11-28T01:06:25.665Z,9.30
2022-11-28T01:08:54.219Z,10.23
2022-11-28T01:11:24.348Z,9.83
2022-11-28T01:13:54.666Z,9.87
2022-11-28T01:16:22.799Z,8.83
2022-11-28T01:18:51.109Z,9.67
2022-11-28T01:21:20.263Z,10.10
2022-11-28T01:23:48.494Z,9.23
2022-11-28T01:26:19.893Z,9.67
2022-11-28T01:28:50.054Z,9.93
2022-11-28T01:31:19.895Z,10.37
2022-11-28T01:33:48.201Z,9.40
2022-11-28T01:36:16.470Z,9.27
2022-11-28T01:38:44.648Z,9.83
2022-11-28T01:41:13.488Z,9.37
2022-11-28T01:44:05.638Z,9.47
2022-11-28T01:46:37.742Z,8.93
2022-11-28T01:49:15.137Z,8.63
2022-11-28T01:51:47.737Z,9.70
2022-11-28T01:54:17.750Z,9.20
2022-11-28T01:56:51.258Z,8.50
2022-11-28T01:59:22.655Z,8.83
2022-11-28T02:01:50.891Z,8.83
2022-11-28T02:04:19.302Z,8.43
2022-11-28T02:06:47.537Z,8.93
2022-11-28T02:09:17.309Z,8.90
2022-11-28T02:12:06.268Z,9.83
2022-11-28T02:14:54.045Z,8.83
2022-11-28T02:17:36.842Z,8.63
2022-11-28T02:20:33.895Z,8.93
2022-11-28T02:23:07.366Z,9.30
2022-11-28T02:26:04.999Z,9.17
2022-11-28T02:29:05.125Z,10.07
2022-11-28T02:32:11.979Z,10.07
2022-11-28T02:34:49.693Z,9.40
2022-11-28T02:37:27.530Z,8.67
2022-11-28T02:40:04.837Z,9.87
2022-11-28T02:42:42.478Z,8.47
2022-11-28T02:45:14.854Z,10.63
2022-11-28T02:47:46.991Z,10.30
2022-11-28T02:50:23.533Z,10.70
2022-11-28T02:52:54.930Z,11.13
2022-11-28T02:55:24.286Z,10.57
2022-11-28T02:57:54.898Z,11.20
2022-11-28T03:00:30.004Z,10.47
2022-11-28T03:03:38.285Z,9.40
2022-11-28T03:06:17.913Z,10.87
2022-11-28T03:08:58.730Z,10.83
2022-11-28T03:11:47.375Z,10.27
2022-11-28T03:14:25.588Z,10.23
2022-11-28T03:17:04.455Z,10.83
2022-11-28T03:19:36.852Z,10.17
2022-11-28T03:22:15.130Z,10.60
2022-11-28T03:24:47.946Z,10.70
2022-11-28T03:27:19.937Z,11.27
2022-11-28T03:29:50.904Z,10.97
2022-11-28T03:32:24.663Z,11.27
2022-11-28T03:35:00.914Z,11.50
2022-11-28T03:37:34.002Z,12.83
2022-11-28T03:40:07.250Z,11.73
2022-11-28T03:42:39.862Z,12.73
2022-11-28T03:45:12.008Z,11.60
2022-11-28T03:47:46.862Z,11.53
2022-11-28T03:50:20.453Z,13.03
2022-11-28T03:52:55.757Z,12.33
2022-11-28T03:55:31.767Z,13.13
2022-11-28T03:58:06.041Z,12.77
2022-11-28T04:00:37.396Z,12.70
2022-11-28T04:03:13.396Z,12.70
2022-11-28T04:05:49.542Z,12.00
2022-11-28T04:08:23.507Z,11.77
2022-11-28T04:10:57.823Z,11.47
2022-11-28T04:13:30.608Z,11.83
2022-11-28T04:16:04.643Z,12.43
2022-11-28T04:18:40.933Z,13.10
2022-11-28T04:21:13.975Z,12.67
2022-11-28T04:23:47.680Z,11.60
2022-11-28T04:26:20.986Z,12.17
2022-11-28T04:28:51.114Z,12.60
2022-11-28T04:31:22.531Z,11.60
2022-11-28T04:33:55.839Z,11.63
2022-11-28T04:36:25.893Z,11.00
2022-11-28T04:38:57.630Z,11.47
2022-11-28T04:41:33.449Z,12.70
2022-11-28T04:44:08.764Z,11.47
2022-11-28T04:46:41.602Z,12.23
2022-11-28T04:49:09.778Z,12.93
2022-11-28T04:51:45.712Z,11.70
2022-11-28T04:54:23.290Z,11.43
2022-11-28T04:56:57.404Z,11.93
2022-11-28T04:59:28.455Z,12.33
2022-11-28T05:01:58.498Z,10.23
2022-11-28T05:04:26.660Z,9.70
2022-11-28T05:07:02.439Z,11.03
2022-11-28T05:09:32.149Z,9.97
2022-11-28T05:12:00.206Z,10.20
2022-11-28T05:14:28.773Z,10.40
2022-11-28T05:16:56.799Z,9.80
2022-11-28T05:19:24.896Z,10.50
2022-11-28T05:21:53.645Z,9.00
2022-11-28T05:24:22.577Z,9.07
2022-11-28T05:26:52.414Z,9.37
2022-11-28T05:29:20.460Z,10.27
2022-11-28T05:31:48.461Z,10.40
2022-11-28T05:34:16.575Z,9.67
2022-11-28T05:36:44.525Z,9.30
2022-11-28T05:39:12.470Z,9.70
2022-11-28T05:41:40.517Z,10.23
2022-11-28T05:44:11.542Z,9.07
2022-11-28T05:46:39.478Z,14.77
2022-11-28T05:49:07.449Z,11.73
2022-11-28T05:51:35.470Z,13.43
2022-11-28T05:54:03.584Z,14.03
2022-11-28T05:56:31.831Z,13.23
2022-11-28T05:59:00.142Z,13.83
2022-11-28T06:01:30.930Z,12.33
2022-11-28T06:04:01.017Z,14.23
2022-11-28T06:06:31.427Z,12.67
2022-11-28T06:09:00.079Z,15.40
2022-11-28T06:11:30.170Z,15.27
2022-11-28T06:13:58.416Z,14.50
2022-11-28T06:16:28.509Z,15.17
2022-11-28T06:18:59.633Z,15.50
2022-11-28T06:21:28.951Z,13.70
2022-11-28T06:23:58.720Z,13.10
2022-11-28T06:26:28.310Z,15.77
2022-11-28T06:28:56.640Z,11.63
2022-11-28T06:31:27.356Z,12.43
2022-11-28T06:33:57.847Z,12.33
2022-11-28T06:36:26.480Z,12.63
2022-11-28T06:38:54.909Z,15.17
2022-11-28T06:41:23.894Z,15.37
2022-11-28T06:43:52.783Z,14.03
2022-11-28T06:46:22.623Z,12.67
2022-11-28T06:48:52.503Z,11.87
2022-11-28T06:51:22.439Z,11.47
2022-11-28T06:53:50.904Z,11.77
2022-11-28T06:56:21.180Z,12.67
2022-11-28T06:58:55.097Z,13.40
2022-11-28T07:01:27.078Z,14.13
2022-11-28T07:03:55.921Z,14.97
2022-11-28T07:06:26.915Z,14.43
2022-11-28T07:08:55.063Z,13.73
2022-11-28T07:11:25.034Z,13.17
2022-11-28T07:13:54.279Z,12.73
2022-11-28T07:16:24.569Z,13.57
2022-11-28T07:18:53.576Z,12.83
2022-11-28T07:21:22.151Z,12.70
2022-11-28T07:23:51.618Z,11.50
2022-11-28T07:26:21.542Z,12.00
2022-11-28T07:28:50.306Z,10.27
2022-11-28T07:31:21.518Z,10.20
2022-11-28T07:33:52.183Z,10.47
2022-11-28T07:36:21.582Z,9.47
2022-11-28T07:38:52.950Z,9.90
2022-11-28T07:41:26.251Z,9.33
2022-11-28T07:43:56.855Z,9.97
2022-11-28T07:46:25.748Z,8.37
2022-11-28T07:48:54.127Z,7.10
2022-11-28T07:51:24.201Z,7.80
2022-11-28T07:53:54.241Z,8.20
2022-11-28T07:56:25.172Z,7.77
2022-11-28T07:58:53.741Z,8.47
2022-11-28T08:01:23.607Z,8.37
2022-11-28T08:03:52.895Z,8.50
2022-11-28T08:06:23.744Z,8.40
2022-11-28T08:08:53.935Z,8.87
2022-11-28T08:11:23.993Z,8.60
2022-11-28T08:13:55.099Z,9.10
2022-11-28T08:16:28.315Z,8.53
2022-11-28T08:18:57.110Z,8.73
2022-11-28T08:21:26.739Z,8.50
2022-11-28T08:23:59.428Z,8.77
2022-11-28T08:26:30.984Z,8.40
2022-11-28T08:29:00.056Z,9.03
2022-11-28T08:31:30.471Z,11.50
2022-11-28T08:34:00.812Z,12.27
2022-11-28T08:36:29.604Z,9.20
2022-11-28T08:39:23.022Z,9.33
2022-11-28T08:41:49.893Z,8.87
2022-11-28T08:44:18.031Z,7.67
2022-11-28T08:46:46.081Z,8.77
2022-11-28T08:49:14.068Z,7.33
2022-11-28T08:51:42.185Z,7.90
2022-11-28T08:54:11.773Z,7.70
2022-11-28T08:56:39.875Z,8.13
2022-11-28T08:59:08.199Z,9.90
2022-11-28T09:01:36.237Z,7.63
2022-11-28T09:04:05.587Z,8.43
2022-11-28T09:06:33.922Z,8.87
2022-11-28T09:09:03.058Z,7.83
2022-11-28T09:11:33.099Z,8.20
2022-11-28T09:14:01.365Z,8.47
2022-11-28T09:16:29.664Z,8.47
2022-11-28T09:18:59.505Z,8.20
2022-11-28T09:21:28.107Z,9.30
2022-11-28T09:23:57.409Z,8.60
2022-11-28T09:26:26.538Z,7.40
2022-11-28T09:28:56.134Z,7.67
2022-11-28T09:31:24.591Z,7.70
2022-11-28T09:33:52.743Z,7.80
2022-11-28T09:36:22.845Z,7.37
2022-11-28T09:38:51.262Z,7.30
2022-11-28T09:41:37.825Z,7.97
2022-11-28T09:44:16.680Z,7.70
2022-11-28T09:46:47.646Z,8.77
2022-11-28T09:49:25.106Z,8.40
2022-11-28T09:51:58.613Z,8.57
2022-11-28T09:54:36.037Z,9.90
2022-11-28T09:57:10.105Z,10.27
2022-11-28T09:59:39.734Z,9.40
2022-11-28T10:02:22.537Z,9.10
2022-11-28T10:04:59.801Z,9.63
2022-11-28T10:07:35.472Z,10.00
2022-11-28T10:10:15.746Z,8.83
2022-11-28T10:12:52.610Z,9.83
2022-11-28T10:15:38.473Z,10.23
2022-11-28T10:18:19.378Z,10.27
2022-11-28T10:20:49.888Z,10.43
2022-11-28T10:23:24.241Z,10.77
2022-11-28T10:25:56.998Z,10.03
2022-11-28T10:28:30.713Z,10.23
2022-11-28T10:31:05.508Z,9.10
2022-11-28T10:33:38.306Z,9.00
2022-11-28T10:36:08.974Z,8.30
2022-11-28T10:38:37.756Z,8.87
2022-11-28T10:41:14.559Z,8.33
2022-11-28T10:43:47.382Z,8.40
2022-11-28T10:46:42.444Z,8.00
2022-11-28T10:49:28.360Z,14.30
2022-11-28T10:52:09.429Z,8.90
2022-11-28T10:55:01.638Z,9.27
2022-11-28T10:57:36.594Z,9.57
2022-11-28T11:00:12.364Z,7.23
2022-11-28T11:02:46.986Z,8.30
2022-11-28T11:05:18.588Z,7.67
2022-11-28T11:07:51.636Z,8.67
2022-11-28T11:10:22.872Z,8.43
2022-11-28T11:12:53.692Z,9.80
2022-11-28T11:15:25.712Z,8.23
2022-11-28T11:17:55.141Z,7.53
2022-11-28T11:20:36.694Z,7.03
2022-11-28T11:23:13.874Z,6.90
2022-11-28T11:25:52.775Z,7.70
2022-11-28T11:28:41.670Z,7.80
2022-11-28T11:31:21.873Z,8.17
2022-11-28T11:33:54.477Z,8.70
2022-11-28T11:36:28.306Z,7.77
2022-11-28T11:39:18.187Z,8.57
2022-11-28T11:41:48.920Z,9.20
2022-11-28T11:44:35.388Z,8.50
2022-11-28T11:47:05.676Z,8.33
2022-11-28T11:49:36.899Z,7.90
2022-11-28T11:52:08.134Z,8.40
2022-11-28T11:54:36.160Z,8.83
2022-11-28T11:57:31.501Z,8.73
2022-11-28T11:59:57.296Z,9.17
2022-11-28T12:02:32.513Z,8.90
2022-11-28T12:05:05.672Z,9.40
2022-11-28T12:07:40.406Z,8.47
2022-11-28T12:10:14.184Z,9.23
2022-11-28T12:12:42.470Z,8.73
2022-11-28T12:15:18.558Z,9.17
2022-11-28T12:17:59.766Z,9.27
2022-11-28T12:20:39.179Z,8.53
2022-11-28T12:23:24.177Z,8.70
2022-11-28T12:25:59.826Z,9.33
2022-11-28T12:28:43.629Z,8.23
2022-11-28T12:31:20.596Z,9.30
2022-11-28T12:34:01.891Z,9.60
2022-11-28T12:36:37.869Z,10.03
2022-11-28T12:39:18.501Z,10.73
2022-11-28T12:42:09.669Z,10.27
2022-11-28T12:44:56.307Z,10.63
2022-11-28T12:47:35.974Z,11.70
2022-11-28T12:50:17.229Z,11.43
2022-11-28T12:52:57.350Z,10.47
2022-11-28T12:55:33.651Z,12.03
2022-11-28T12:58:10.147Z,9.63
2022-11-28T13:00:49.387Z,10.90
2022-11-28T13:03:34.013Z,10.47
2022-11-28T13:06:16.538Z,11.37
2022-11-28T13:09:10.587Z,12.57
2022-11-28T13:11:51.057Z,10.30
2022-11-28T13:14:30.490Z,10.20
2022-11-28T13:17:06.993Z,10.17
2022-11-28T13:19:42.260Z,11.57
2022-11-28T13:22:15.993Z,12.10
2022-11-28T13:24:52.695Z,11.20
2022-11-28T13:27:32.684Z,15.67
2022-11-28T13:30:13.732Z,12.30
2022-11-28T13:32:48.047Z,13.30
2022-11-28T13:35:18.855Z,11.33
2022-11-28T13:40:49.790Z,11.63
2022-11-28T13:43:25.652Z,13.67
2022-11-28T13:45:54.312Z,12.07
2022-11-28T13:49:19.629Z,12.90
2022-11-28T13:51:49.218Z,13.67
2022-11-28T13:54:45.706Z,13.03
2022-11-28T13:57:23.146Z,12.73
2022-11-28T13:59:58.324Z,12.53
2022-11-28T14:02:37.441Z,13.57
2022-11-28T14:05:19.958Z,12.43
2022-11-28T14:07:51.596Z,12.57
2022-11-28T14:10:41.894Z,14.97
2022-11-28T14:13:30.931Z,12.07
2022-11-28T14:16:14.922Z,13.37
2022-11-28T14:19:01.680Z,14.03
2022-11-28T14:21:42.179Z,13.80
2022-11-28T14:24:17.574Z,12.63
2022-11-28T14:26:46.110Z,12.83
2022-11-28T14:29:26.343Z,12.93
2022-11-28T14:32:27.879Z,13.47
2022-11-28T14:34:47.296Z,13.00
2022-11-28T14:37:48.936Z,12.77
2022-11-28T14:40:53.419Z,11.20
2022-11-28T14:43:29.429Z,11.70
2022-11-28T14:46:29.695Z,10.50
2022-11-28T14:49:21.134Z,11.83
2022-11-28T14:52:37.609Z,12.03
2022-11-28T14:55:22.903Z,10.70
2022-11-28T14:57:59.252Z,11.60
2022-11-28T15:00:29.671Z,11.53
2022-11-28T15:03:28.754Z,12.53
2022-11-28T15:06:02.354Z,11.87
2022-11-28T15:08:45.581Z,11.97
2022-11-28T15:11:23.410Z,11.30
2022-11-28T15:14:09.196Z,11.33
2022-11-28T15:16:45.134Z,10.77
2022-11-28T15:19:24.904Z,10.63
2022-11-28T15:21:54.655Z,11.20
2022-11-28T15:24:29.846Z,11.23
2022-11-28T15:26:59.988Z,12.03
2022-11-28T15:29:30.226Z,12.53
2022-11-28T15:31:59.641Z,12.53
2022-11-28T15:34:32.205Z,13.37
2022-11-28T15:37:02.437Z,13.83
2022-11-28T15:39:36.098Z,13.43
2022-11-28T15:42:06.859Z,12.53
2022-11-28T15:44:36.788Z,11.83
2022-11-28T15:47:05.299Z,12.50
2022-11-28T15:49:41.227Z,14.17
2022-11-28T15:52:17.469Z,13.37
2022-11-28T15:54:46.682Z,17.20
2022-11-28T15:57:25.178Z,14.63
2022-11-28T15:59:53.658Z,15.00
2022-11-28T16:02:26.843Z,14.60
2022-11-28T16:05:03.784Z,14.37
2022-11-28T16:07:32.289Z,13.87
2022-11-28T16:10:03.906Z,14.83
2022-11-28T16:12:32.260Z,15.63
2022-11-28T16:15:03.701Z,14.53
2022-11-28T16:17:34.677Z,15.30
2022-11-28T16:20:05.179Z,14.33
2022-11-28T16:22:37.919Z,15.40
2022-11-28T16:25:15.415Z,13.90
2022-11-28T16:27:47.502Z,11.77
2022-11-28T16:30:36.710Z,12.40
2022-11-28T16:33:25.742Z,12.17
2022-11-28T16:36:08.968Z,10.77
2022-11-28T16:38:37.443Z,12.40
2022-11-28T16:41:05.867Z,11.37
2022-11-28T16:43:36.974Z,13.27
2022-11-28T16:46:07.997Z,12.93
2022-11-28T16:48:38.367Z,14.53
2022-11-28T16:51:36.139Z,14.83
2022-11-28T16:54:29.025Z,19.17
2022-11-28T16:57:11.682Z,15.57
2022-11-28T16:59:39.901Z,16.00
2022-11-28T17:02:16.629Z,16.70
2022-11-28T17:04:45.380Z,17.53
2022-11-28T17:07:17.536Z,17.07
2022-11-28T17:09:47.436Z,16.30
2022-11-28T17:12:22.703Z,14.13
2022-11-28T17:14:50.787Z,16.10
2022-11-28T17:17:20.700Z,16.30
2022-11-28T17:19:48.810Z,15.80
2022-11-28T17:22:21.099Z,16.80
2022-11-28T17:24:50.252Z,16.43
2022-11-28T17:27:18.518Z,16.30
2022-11-28T17:29:46.731Z,15.97
2022-11-28T17:32:15.632Z,15.67
2022-11-28T17:34:46.880Z,14.83
2022-11-28T17:37:17.718Z,16.67
2022-11-28T17:40:06.263Z,15.17
2022-11-28T17:42:34.310Z,14.57
2022-11-28T17:45:02.376Z,15.80
2022-11-28T17:47:30.527Z,16.83
2022-11-28T17:49:58.890Z,19.27
2022-11-28T17:52:30.356Z,24.00
2022-11-28T17:55:06.865Z,25.80
2022-11-28T17:57:35.654Z,23.83
2022-11-28T18:00:06.677Z,23.03
2022-11-28T18:02:35.124Z,21.67
2022-11-28T18:05:03.375Z,21.80
2022-11-28T18:07:33.199Z,22.13
2022-11-28T18:10:01.304Z,22.73
2022-11-28T18:12:29.335Z,23.47
2022-11-28T18:14:59.112Z,22.80
2022-11-28T18:17:27.085Z,23.73
2022-11-28T18:19:57.717Z,30.30
2022-11-28T18:22:26.140Z,30.37
2022-11-28T18:24:55.573Z,28.63
2022-11-28T18:27:23.821Z,24.93
2022-11-28T18:29:52.606Z,20.73
2022-11-28T18:32:20.683Z,19.90
2022-11-28T18:34:48.758Z,18.77
2022-11-28T18:37:16.867Z,15.97
2022-11-28T18:39:45.082Z,15.97
2022-11-28T18:42:14.667Z,16.70
2022-11-28T18:44:42.756Z,18.00
2022-11-28T18:47:13.168Z,18.13
2022-11-28T18:49:41.884Z,20.17
2022-11-28T18:52:10.234Z,21.77
2022-11-28T18:54:38.857Z,19.37
2022-11-28T18:57:08.725Z,23.23
2022-11-28T18:59:38.196Z,19.23
2022-11-28T19:02:06.364Z,20.40
2022-11-28T19:04:34.414Z,20.97
2022-11-28T19:07:04.214Z,22.30
2022-11-28T19:09:32.661Z,19.13
2022-11-28T19:12:00.736Z,19.40
2022-11-28T19:14:28.889Z,19.13
2022-11-28T19:16:58.419Z,17.47
2022-11-28T19:19:26.572Z,22.37
2022-11-28T19:21:54.893Z,30.97
2022-11-28T19:24:23.254Z,33.57
2022-11-28T19:26:51.685Z,20.90
2022-11-28T19:29:20.056Z,20.50
2022-11-28T19:31:48.188Z,18.77
2022-11-28T19:34:20.527Z,20.10
2022-11-28T19:36:50.987Z,14.90
2022-11-28T19:39:22.400Z,17.03
2022-11-28T19:41:51.430Z,12.83
2022-11-28T19:44:21.024Z,14.67
2022-11-28T19:46:50.417Z,12.73
2022-11-28T19:49:22.378Z,16.73
2022-11-28T19:51:52.248Z,16.57
2022-11-28T19:54:21.909Z,20.57
2022-11-28T19:56:50.698Z,28.90
2022-11-28T19:59:19.425Z,22.53
2022-11-28T20:01:49.916Z,21.57
2022-11-28T20:04:38.145Z,18.50
2022-11-28T20:07:06.164Z,16.73
2022-11-28T20:09:34.187Z,15.43
2022-11-28T20:12:02.256Z,16.07
2022-11-28T20:14:32.333Z,15.67
2022-11-28T20:17:01.135Z,14.53
2022-11-28T20:19:29.394Z,13.40
2022-11-28T20:22:00.671Z,13.70
2022-11-28T20:24:30.456Z,14.23
2022-11-28T20:26:58.654Z,13.93
2022-11-28T20:29:28.054Z,14.60
2022-11-28T20:31:57.432Z,14.53
2022-11-28T20:34:26.979Z,15.17
2022-11-28T20:36:55.319Z,14.47
2022-11-28T20:39:25.025Z,14.53
2022-11-28T20:41:53.083Z,13.37
2022-11-28T20:44:21.480Z,12.60
2022-11-28T20:46:50.106Z,13.40
2022-11-28T20:49:18.711Z,12.50
2022-11-28T20:51:48.349Z,11.77
2022-11-28T20:54:16.485Z,13.17
2022-11-28T20:57:13.278Z,13.80
2022-11-28T20:59:35.844Z,12.73
2022-11-28T21:02:04.102Z,12.83
2022-11-28T21:04:33.042Z,13.40
2022-11-28T21:07:01.118Z,11.77
2022-11-28T21:09:29.340Z,12.63
2022-11-28T21:11:59.601Z,12.73
2022-11-28T21:14:29.419Z,13.70
2022-11-28T21:16:58.826Z,14.17
2022-11-28T21:19:27.202Z,13.30
2022-11-28T21:21:55.409Z,14.77
2022-11-28T21:24:23.614Z,15.00
2022-11-28T21:26:54.446Z,14.93
2022-11-28T21:29:25.202Z,13.97
2022-11-28T21:31:53.416Z,13.90
2022-11-28T21:34:22.511Z,12.50
2022-11-28T21:36:50.592Z,12.23
2022-11-28T21:39:20.685Z,11.40
2022-11-28T21:41:49.179Z,11.80
2022-11-28T21:44:17.410Z,10.97
2022-11-28T21:46:46.729Z,11.50
2022-11-28T21:49:14.752Z,12.37
2022-11-28T21:51:42.855Z,12.03
2022-11-28T21:54:11.700Z,11.47
2022-11-28T21:56:40.098Z,11.67
2022-11-28T21:59:08.262Z,10.83
2022-11-28T22:01:36.365Z,11.43
2022-11-28T22:04:06.298Z,10.43
2022-11-28T22:06:34.593Z,9.30
2022-11-28T22:09:09.213Z,10.30
2022-11-28T22:11:38.363Z,9.83
2022-11-28T22:14:06.745Z,9.17
2022-11-28T22:16:34.833Z,9.67
2022-11-28T22:19:03.188Z,8.33
2022-11-28T22:24:21.213Z,8.60
2022-11-28T22:26:49.314Z,9.30
2022-11-28T22:29:17.466Z,9.27
2022-11-28T22:31:45.810Z,8.57
2022-11-28T22:34:14.040Z,8.67
2022-11-28T22:36:43.432Z,9.10
2022-11-28T22:39:12.610Z,8.87
2022-11-28T22:41:40.847Z,9.30
2022-11-28T22:44:08.909Z,8.67
2022-11-28T22:46:37.174Z,10.17
2022-11-28T22:49:05.350Z,9.03
2022-11-28T22:51:33.651Z,9.50
2022-11-28T22:54:04.223Z,8.90
2022-11-28T22:56:34.472Z,8.97
2022-11-28T22:59:05.106Z,8.73
2022-11-28T23:01:34.403Z,8.67
2022-11-28T23:04:02.412Z,9.67
2022-11-28T23:06:32.399Z,8.40
2022-11-28T23:09:03.505Z,9.10
2022-11-28T23:11:34.305Z,7.83
2022-11-28T23:14:04.457Z,7.90
2022-11-28T23:16:34.499Z,8.53
2022-11-28T23:19:05.132Z,8.47
2022-11-28T23:21:34.715Z,8.80
2022-11-28T23:24:04.444Z,8.53
2022-11-28T23:26:33.435Z,8.30
2022-11-28T23:29:02.906Z,8.00
2022-11-28T23:31:32.689Z,9.13
2022-11-28T23:34:02.118Z,8.67
2022-11-28T23:36:36.967Z,8.30
2022-11-28T23:39:12.605Z,8.50
2022-11-28T23:41:41.081Z,9.87
2022-11-28T23:44:11.608Z,8.47
2022-11-28T23:46:40.506Z,8.30
2022-11-28T23:49:09.186Z,8.73
2022-11-28T23:51:38.175Z,8.73
2022-11-28T23:54:06.278Z,8.17
2022-11-28T23:56:38.222Z,8.63
2022-11-28T23:59:08.008Z,8.77
